sensor_id;sensor_type;location;lat;lon;timestamp;pressure;altitude;pressure_sealevel;temperature;humidity
59043;BME280;44826;51.596;5.624;2023-11-21T00:00:48;100982.16;;;7.21;100.00
59043;BME280;44826;51.596;5.624;2023-11-21T00:03:13;100989.06;;;7.19;100.00
59043;BME280;44826;51.596;5.624;2023-11-21T00:05:42;100987.34;;;7.18;100.00
59043;BME280;44826;51.596;5.624;2023-11-21T00:08:08;100988.25;;;7.15;100.00
59043;BME280;44826;51.596;5.624;2023-11-21T00:10:34;100993.41;;;7.15;100.00
59043;BME280;44826;51.596;5.624;2023-11-21T00:13:00;100987.41;;;7.14;100.00
59043;BME280;44826;51.596;5.624;2023-11-21T00:15:27;100989.13;;;7.12;100.00
59043;BME280;44826;51.596;5.624;2023-11-21T00:17:52;100996.03;;;7.13;100.00
59043;BME280;44826;51.596;5.624;2023-11-21T00:20:17;100998.59;;;7.12;100.00
59043;BME280;44826;51.596;5.624;2023-11-21T00:22:42;100996.06;;;7.10;100.00
59043;BME280;44826;51.596;5.624;2023-11-21T00:25:08;100996.06;;;7.07;100.00
59043;BME280;44826;51.596;5.624;2023-11-21T00:27:38;100991.75;;;7.06;100.00
59043;BME280;44826;51.596;5.624;2023-11-21T00:30:04;100995.25;;;7.04;100.00
59043;BME280;44826;51.596;5.624;2023-11-21T00:32:33;100992.69;;;7.01;100.00
59043;BME280;44826;51.596;5.624;2023-11-21T00:34:59;100999.63;;;6.97;100.00
59043;BME280;44826;51.596;5.624;2023-11-21T00:37:24;101003.09;;;6.93;100.00
59043;BME280;44826;51.596;5.624;2023-11-21T00:39:50;100993.66;;;6.90;100.00
59043;BME280;44826;51.596;5.624;2023-11-21T00:42:15;101003.13;;;6.87;100.00
59043;BME280;44826;51.596;5.624;2023-11-21T00:44:40;101003.19;;;6.82;100.00
59043;BME280;44826;51.596;5.624;2023-11-21T00:47:05;101004.06;;;6.79;100.00
59043;BME280;44826;51.596;5.624;2023-11-21T00:49:31;100996.34;;;6.73;100.00
59043;BME280;44826;51.596;5.624;2023-11-21T00:51:57;100999.78;;;6.72;100.00
59043;BME280;44826;51.596;5.624;2023-11-21T00:54:23;100998.94;;;6.70;100.00
59043;BME280;44826;51.596;5.624;2023-11-21T00:56:48;101006.72;;;6.67;100.00
59043;BME280;44826;51.596;5.624;2023-11-21T00:59:14;101011.06;;;6.63;100.00
59043;BME280;44826;51.596;5.624;2023-11-21T01:01:39;101011.13;;;6.57;100.00
59043;BME280;44826;51.596;5.624;2023-11-21T01:04:04;101011.13;;;6.52;100.00
59043;BME280;44826;51.596;5.624;2023-11-21T01:06:32;101011.16;;;6.51;100.00
59043;BME280;44826;51.596;5.624;2023-11-21T01:08:57;101015.44;;;6.50;100.00
59043;BME280;44826;51.596;5.624;2023-11-21T01:11:22;101017.16;;;6.51;100.00
59043;BME280;44826;51.596;5.624;2023-11-21T01:13:47;101022.31;;;6.51;100.00
59043;BME280;44826;51.596;5.624;2023-11-21T01:16:13;101024.97;;;6.48;100.00
59043;BME280;44826;51.596;5.624;2023-11-21T01:18:38;101025.81;;;6.47;100.00
59043;BME280;44826;51.596;5.624;2023-11-21T01:21:03;101032.72;;;6.48;100.00
59043;BME280;44826;51.596;5.624;2023-11-21T01:23:29;101032.72;;;6.48;100.00
59043;BME280;44826;51.596;5.624;2023-11-21T01:25:56;101035.28;;;6.47;100.00
59043;BME280;44826;51.596;5.624;2023-11-21T01:28:21;101042.19;;;6.43;100.00
59043;BME280;44826;51.596;5.624;2023-11-21T01:30:48;101043.94;;;6.41;100.00
59043;BME280;44826;51.596;5.624;2023-11-21T01:33:13;101048.25;;;6.42;100.00
59043;BME280;44826;51.596;5.624;2023-11-21T01:35:41;101043.06;;;6.42;100.00
59043;BME280;44826;51.596;5.624;2023-11-21T01:38:06;101061.16;;;6.41;100.00
59043;BME280;44826;51.596;5.624;2023-11-21T01:40:33;101063.75;;;6.39;100.00
59043;BME280;44826;51.596;5.624;2023-11-21T01:42:58;101061.19;;;6.34;100.00
59043;BME280;44826;51.596;5.624;2023-11-21T01:45:23;101065.50;;;6.34;100.00
59043;BME280;44826;51.596;5.624;2023-11-21T01:47:50;101069.84;;;6.32;100.00
59043;BME280;44826;51.596;5.624;2023-11-21T01:50:16;101066.38;;;6.31;100.00
59043;BME280;44826;51.596;5.624;2023-11-21T01:52:47;101062.91;;;6.34;100.00
59043;BME280;44826;51.596;5.624;2023-11-21T01:55:15;101060.31;;;6.37;100.00
59043;BME280;44826;51.596;5.624;2023-11-21T01:57:43;101059.47;;;6.40;100.00
59043;BME280;44826;51.596;5.624;2023-11-21T02:00:09;101053.41;;;6.41;100.00
59043;BME280;44826;51.596;5.624;2023-11-21T02:02:43;101053.38;;;6.44;100.00
59043;BME280;44826;51.596;5.624;2023-11-21T02:05:10;101056.84;;;6.41;100.00
59043;BME280;44826;51.596;5.624;2023-11-21T02:07:37;101059.47;;;6.40;100.00
59043;BME280;44826;51.596;5.624;2023-11-21T02:10:03;101061.16;;;6.39;100.00
59043;BME280;44826;51.596;5.624;2023-11-21T02:12:29;101064.63;;;6.40;100.00
59043;BME280;44826;51.596;5.624;2023-11-21T02:14:55;101061.16;;;6.39;100.00
59043;BME280;44826;51.596;5.624;2023-11-21T02:17:21;101065.47;;;6.40;100.00
59043;BME280;44826;51.596;5.624;2023-11-21T02:19:46;101068.06;;;6.40;100.00
59043;BME280;44826;51.596;5.624;2023-11-21T02:22:13;101071.50;;;6.42;100.00
59043;BME280;44826;51.596;5.624;2023-11-21T02:24:41;101082.69;;;6.44;100.00
59043;BME280;44826;51.596;5.624;2023-11-21T02:27:07;101079.25;;;6.45;100.00
59043;BME280;44826;51.596;5.624;2023-11-21T02:29:32;101084.41;;;6.48;100.00
59043;BME280;44826;51.596;5.624;2023-11-21T02:31:58;101086.09;;;6.49;100.00
59043;BME280;44826;51.596;5.624;2023-11-21T02:34:24;101091.25;;;6.49;100.00
59043;BME280;44826;51.596;5.624;2023-11-21T02:36:50;101094.72;;;6.50;100.00
59043;BME280;44826;51.596;5.624;2023-11-21T02:39:17;101091.28;;;6.51;100.00
59043;BME280;44826;51.596;5.624;2023-11-21T02:41:43;101092.97;;;6.50;100.00
59043;BME280;44826;51.596;5.624;2023-11-21T02:44:08;101093.84;;;6.51;100.00
59043;BME280;44826;51.596;5.624;2023-11-21T02:46:35;101098.16;;;6.50;100.00
59043;BME280;44826;51.596;5.624;2023-11-21T02:49:02;101099.88;;;6.51;100.00
59043;BME280;44826;51.596;5.624;2023-11-21T02:51:27;101094.69;;;6.51;100.00
59043;BME280;44826;51.596;5.624;2023-11-21T02:53:53;101091.28;;;6.51;100.00
59043;BME280;44826;51.596;5.624;2023-11-21T02:56:18;101086.09;;;6.51;100.00
59043;BME280;44826;51.596;5.624;2023-11-21T02:58:44;101088.69;;;6.49;100.00
59043;BME280;44826;51.596;5.624;2023-11-21T03:01:10;101088.69;;;6.49;100.00
59043;BME280;44826;51.596;5.624;2023-11-21T03:03:36;101092.13;;;6.50;100.00
59043;BME280;44826;51.596;5.624;2023-11-21T03:06:06;101084.41;;;6.48;100.00
59043;BME280;44826;51.596;5.624;2023-11-21T03:08:31;101092.97;;;6.50;100.00
59043;BME280;44826;51.596;5.624;2023-11-21T03:10:57;101093.84;;;6.51;100.00
59043;BME280;44826;51.596;5.624;2023-11-21T03:13:22;101095.56;;;6.50;100.00
59043;BME280;44826;51.596;5.624;2023-11-21T03:15:48;101097.31;;;6.50;100.00
59043;BME280;44826;51.596;5.624;2023-11-21T03:18:13;101106.78;;;6.49;100.00
59043;BME280;44826;51.596;5.624;2023-11-21T03:20:38;101096.44;;;6.49;100.00
59043;BME280;44826;51.596;5.624;2023-11-21T03:23:04;101106.78;;;6.49;100.00
59043;BME280;44826;51.596;5.624;2023-11-21T03:25:30;101106.78;;;6.49;100.00
59043;BME280;44826;51.596;5.624;2023-11-21T03:27:56;101104.19;;;6.48;100.00
59043;BME280;44826;51.596;5.624;2023-11-21T03:30:21;101101.63;;;6.46;100.00
59043;BME280;44826;51.596;5.624;2023-11-21T03:32:46;101107.66;;;6.44;100.00
59043;BME280;44826;51.596;5.624;2023-11-21T03:35:12;101112.00;;;6.40;100.00
59043;BME280;44826;51.596;5.624;2023-11-21T03:37:37;101112.00;;;6.40;100.00
59043;BME280;44826;51.596;5.624;2023-11-21T03:40:06;101111.16;;;6.40;100.00
59043;BME280;44826;51.596;5.624;2023-11-21T03:42:33;101111.16;;;6.40;100.00
59043;BME280;44826;51.596;5.624;2023-11-21T03:44:58;101115.44;;;6.39;100.00
59043;BME280;44826;51.596;5.624;2023-11-21T03:47:24;101124.06;;;6.38;100.00
59043;BME280;44826;51.596;5.624;2023-11-21T03:49:49;101132.66;;;6.37;100.00
59043;BME280;44826;51.596;5.624;2023-11-21T03:52:15;101121.47;;;6.38;100.00
59043;BME280;44826;51.596;5.624;2023-11-21T03:54:40;101131.81;;;6.38;100.00
59043;BME280;44826;51.596;5.624;2023-11-21T03:57:05;101125.78;;;6.36;100.00
59043;BME280;44826;51.596;5.624;2023-11-21T03:59:30;101122.34;;;6.34;100.00
59043;BME280;44826;51.596;5.624;2023-11-21T04:01:56;101127.50;;;6.34;100.00
59043;BME280;44826;51.596;5.624;2023-11-21T04:04:25;101124.09;;;6.32;100.00
59043;BME280;44826;51.596;5.624;2023-11-21T04:06:50;101127.53;;;6.31;100.00
59043;BME280;44826;51.596;5.624;2023-11-21T04:09:17;101131.00;;;6.30;100.00
59043;BME280;44826;51.596;5.624;2023-11-21T04:11:42;101128.41;;;6.30;100.00
59043;BME280;44826;51.596;5.624;2023-11-21T04:14:08;101143.91;;;6.28;100.00
59043;BME280;44826;51.596;5.624;2023-11-21T04:16:33;101146.50;;;6.27;100.00
59043;BME280;44826;51.596;5.624;2023-11-21T04:18:59;101148.22;;;6.25;100.00
59043;BME280;44826;51.596;5.624;2023-11-21T04:21:24;101150.81;;;6.20;100.00
59043;BME280;44826;51.596;5.624;2023-11-21T04:23:49;101161.16;;;6.18;100.00
59043;BME280;44826;51.596;5.624;2023-11-21T04:26:15;101163.75;;;6.17;100.00
59043;BME280;44826;51.596;5.624;2023-11-21T04:28:40;101159.44;;;6.16;100.00
59043;BME280;44826;51.596;5.624;2023-11-21T04:31:06;101157.72;;;6.15;100.00
59043;BME280;44826;51.596;5.624;2023-11-21T04:33:32;101157.72;;;6.13;100.00
59043;BME280;44826;51.596;5.624;2023-11-21T04:35:57;101170.66;;;6.13;100.00
59043;BME280;44826;51.596;5.624;2023-11-21T04:38:22;101173.22;;;6.12;100.00
59043;BME280;44826;51.596;5.624;2023-11-21T04:40:48;101175.81;;;6.12;100.00
59043;BME280;44826;51.596;5.624;2023-11-21T04:43:13;101175.81;;;6.10;100.00
59043;BME280;44826;51.596;5.624;2023-11-21T04:45:38;101177.53;;;6.08;100.00
59043;BME280;44826;51.596;5.624;2023-11-21T04:48:05;101181.84;;;6.06;100.00
59043;BME280;44826;51.596;5.624;2023-11-21T04:50:31;101182.69;;;6.05;100.00
59043;BME280;44826;51.596;5.624;2023-11-21T04:52:57;101197.34;;;6.03;100.00
59043;BME280;44826;51.596;5.624;2023-11-21T04:55:22;101202.50;;;6.01;100.00
59043;BME280;44826;51.596;5.624;2023-11-21T04:57:47;101208.53;;;6.02;100.00
59043;BME280;44826;51.596;5.624;2023-11-21T05:00:13;101208.53;;;6.02;100.00
59043;BME280;44826;51.596;5.624;2023-11-21T05:02:40;101208.53;;;6.02;100.00
59043;BME280;44826;51.596;5.624;2023-11-21T05:05:06;101203.38;;;6.00;100.00
59043;BME280;44826;51.596;5.624;2023-11-21T05:07:33;101220.56;;;6.00;100.00
59043;BME280;44826;51.596;5.624;2023-11-21T05:10:00;101220.56;;;5.98;100.00
59043;BME280;44826;51.596;5.624;2023-11-21T05:12:31;101218.81;;;5.99;100.00
59043;BME280;44826;51.596;5.624;2023-11-21T05:14:58;101211.97;;;6.01;100.00
59043;BME280;44826;51.596;5.624;2023-11-21T05:17:23;101213.72;;;6.00;100.00
59043;BME280;44826;51.596;5.624;2023-11-21T05:19:49;101215.41;;;6.03;100.00
59043;BME280;44826;51.596;5.624;2023-11-21T05:22:14;101222.31;;;6.04;100.00
59043;BME280;44826;51.596;5.624;2023-11-21T05:24:39;101228.34;;;6.06;100.00
59043;BME280;44826;51.596;5.624;2023-11-21T05:27:05;101228.34;;;6.06;100.00
59043;BME280;44826;51.596;5.624;2023-11-21T05:29:30;101226.59;;;6.06;100.00
59043;BME280;44826;51.596;5.624;2023-11-21T05:31:56;101235.22;;;6.07;100.00
59043;BME280;44826;51.596;5.624;2023-11-21T05:34:21;101231.78;;;6.08;100.00
59043;BME280;44826;51.596;5.624;2023-11-21T05:36:49;101233.50;;;6.09;100.00
59043;BME280;44826;51.596;5.624;2023-11-21T05:39:14;101233.50;;;6.07;100.00
59043;BME280;44826;51.596;5.624;2023-11-21T05:41:42;101238.66;;;6.07;100.00
59043;BME280;44826;51.596;5.624;2023-11-21T05:44:07;101247.28;;;6.08;100.00
59043;BME280;44826;51.596;5.624;2023-11-21T05:46:32;101248.16;;;6.10;100.00
59043;BME280;44826;51.596;5.624;2023-11-21T05:48:58;101243.81;;;6.11;100.00
59043;BME280;44826;51.596;5.624;2023-11-21T05:51:23;101245.56;;;6.10;100.00
59043;BME280;44826;51.596;5.624;2023-11-21T05:53:48;101255.88;;;6.12;100.00
59043;BME280;44826;51.596;5.624;2023-11-21T05:56:14;101254.16;;;6.12;100.00
59043;BME280;44826;51.596;5.624;2023-11-21T05:58:39;101255.03;;;6.14;100.00
59043;BME280;44826;51.596;5.624;2023-11-21T06:01:06;101259.31;;;6.15;100.00
59043;BME280;44826;51.596;5.624;2023-11-21T06:03:37;101274.84;;;6.17;100.00
59043;BME280;44826;51.596;5.624;2023-11-21T06:06:02;101261.91;;;6.18;100.00
59043;BME280;44826;51.596;5.624;2023-11-21T06:08:29;101270.50;;;6.20;100.00
59043;BME280;44826;51.596;5.624;2023-11-21T06:10:54;101276.53;;;6.24;100.00
59043;BME280;44826;51.596;5.624;2023-11-21T06:13:20;101281.69;;;6.24;100.00
59043;BME280;44826;51.596;5.624;2023-11-21T06:15:49;101278.28;;;6.27;100.00
59043;BME280;44826;51.596;5.624;2023-11-21T06:18:14;101280.84;;;6.28;100.00
59043;BME280;44826;51.596;5.624;2023-11-21T06:20:40;101284.28;;;6.30;100.00
59043;BME280;44826;51.596;5.624;2023-11-21T06:23:05;101284.31;;;6.32;100.00
59043;BME280;44826;51.596;5.624;2023-11-21T06:25:30;101284.28;;;6.35;100.00
59043;BME280;44826;51.596;5.624;2023-11-21T06:27:58;101286.03;;;6.37;100.00
59043;BME280;44826;51.596;5.624;2023-11-21T06:30:23;101287.72;;;6.40;100.00
59043;BME280;44826;51.596;5.624;2023-11-21T06:32:48;101292.03;;;6.41;100.00
59043;BME280;44826;51.596;5.624;2023-11-21T06:35:15;101293.75;;;6.42;100.00
59043;BME280;44826;51.596;5.624;2023-11-21T06:37:40;101290.28;;;6.42;100.00
59043;BME280;44826;51.596;5.624;2023-11-21T06:40:06;101294.63;;;6.44;100.00
59043;BME280;44826;51.596;5.624;2023-11-21T06:42:32;101299.78;;;6.47;100.00
59043;BME280;44826;51.596;5.624;2023-11-21T06:44:58;101304.09;;;6.48;100.00
59043;BME280;44826;51.596;5.624;2023-11-21T06:47:24;101304.09;;;6.50;100.00
59043;BME280;44826;51.596;5.624;2023-11-21T06:49:51;101308.41;;;6.51;100.00
59043;BME280;44826;51.596;5.624;2023-11-21T06:52:16;101302.38;;;6.52;100.00
59043;BME280;44826;51.596;5.624;2023-11-21T06:54:42;101312.69;;;6.52;100.00
59043;BME280;44826;51.596;5.624;2023-11-21T06:57:07;101312.69;;;6.52;100.00
59043;BME280;44826;51.596;5.624;2023-11-21T06:59:33;101313.56;;;6.52;100.00
59043;BME280;44826;51.596;5.624;2023-11-21T07:01:58;101318.72;;;6.52;100.00
59043;BME280;44826;51.596;5.624;2023-11-21T07:04:24;101320.44;;;6.53;100.00
59043;BME280;44826;51.596;5.624;2023-11-21T07:06:51;101315.28;;;6.53;100.00
59043;BME280;44826;51.596;5.624;2023-11-21T07:09:16;101321.31;;;6.54;100.00
59043;BME280;44826;51.596;5.624;2023-11-21T07:11:42;101321.31;;;6.54;100.00
59043;BME280;44826;51.596;5.624;2023-11-21T07:14:07;101336.81;;;6.56;100.00
59043;BME280;44826;51.596;5.624;2023-11-21T07:16:35;101335.09;;;6.58;100.00
59043;BME280;44826;51.596;5.624;2023-11-21T07:19:02;101338.53;;;6.60;100.00
59043;BME280;44826;51.596;5.624;2023-11-21T07:21:29;101348.88;;;6.61;100.00
59043;BME280;44826;51.596;5.624;2023-11-21T07:23:54;101350.59;;;6.64;100.00
59043;BME280;44826;51.596;5.624;2023-11-21T07:26:20;101359.22;;;6.66;100.00
59043;BME280;44826;51.596;5.624;2023-11-21T07:28:45;101366.97;;;6.67;100.00
59043;BME280;44826;51.596;5.624;2023-11-21T07:31:10;101362.66;;;6.70;100.00
59043;BME280;44826;51.596;5.624;2023-11-21T07:33:37;101379.03;;;6.70;100.00
59043;BME280;44826;51.596;5.624;2023-11-21T07:36:02;101371.28;;;6.70;100.00
59043;BME280;44826;51.596;5.624;2023-11-21T07:38:28;101371.28;;;6.70;100.00
59043;BME280;44826;51.596;5.624;2023-11-21T07:40:53;101373.00;;;6.71;100.00
59043;BME280;44826;51.596;5.624;2023-11-21T07:43:18;101378.16;;;6.71;100.00
59043;BME280;44826;51.596;5.624;2023-11-21T07:45:44;101380.75;;;6.71;100.00
59043;BME280;44826;51.596;5.624;2023-11-21T07:48:10;101385.06;;;6.71;100.00
59043;BME280;44826;51.596;5.624;2023-11-21T07:50:35;101385.91;;;6.71;100.00
59043;BME280;44826;51.596;5.624;2023-11-21T07:53:00;101390.22;;;6.72;100.00
59043;BME280;44826;51.596;5.624;2023-11-21T07:55:26;101384.19;;;6.73;100.00
59043;BME280;44826;51.596;5.624;2023-11-21T07:57:51;101385.06;;;6.74;100.00
59043;BME280;44826;51.596;5.624;2023-11-21T08:00:17;101393.69;;;6.77;100.00
59043;BME280;44826;51.596;5.624;2023-11-21T08:02:42;101398.84;;;6.80;100.00
59043;BME280;44826;51.596;5.624;2023-11-21T08:05:08;101401.41;;;6.83;100.00
59043;BME280;44826;51.596;5.624;2023-11-21T08:07:34;101402.28;;;6.84;100.00
59043;BME280;44826;51.596;5.624;2023-11-21T08:09:59;101399.69;;;6.86;100.00
59043;BME280;44826;51.596;5.624;2023-11-21T08:12:25;101404.88;;;6.87;100.00
59043;BME280;44826;51.596;5.624;2023-11-21T08:14:53;101411.75;;;6.90;100.00
59043;BME280;44826;51.596;5.624;2023-11-21T08:17:18;101412.66;;;6.90;100.00
59043;BME280;44826;51.596;5.624;2023-11-21T08:19:45;101415.22;;;6.92;100.00
59043;BME280;44826;51.596;5.624;2023-11-21T08:22:15;101425.56;;;6.95;100.00
59043;BME280;44826;51.596;5.624;2023-11-21T08:24:41;101421.25;;;6.97;100.00
59043;BME280;44826;51.596;5.624;2023-11-21T08:27:06;101423.84;;;7.00;100.00
59043;BME280;44826;51.596;5.624;2023-11-21T08:29:32;101425.53;;;7.01;100.00
59043;BME280;44826;51.596;5.624;2023-11-21T08:31:57;101428.97;;;7.03;100.00
59043;BME280;44826;51.596;5.624;2023-11-21T08:34:22;101434.16;;;7.06;100.00
59043;BME280;44826;51.596;5.624;2023-11-21T08:36:48;101435.03;;;7.05;100.00
59043;BME280;44826;51.596;5.624;2023-11-21T08:39:16;101438.50;;;7.06;100.00
59043;BME280;44826;51.596;5.624;2023-11-21T08:41:44;101448.81;;;7.07;100.00
59043;BME280;44826;51.596;5.624;2023-11-21T08:44:09;101452.28;;;7.09;100.00
59043;BME280;44826;51.596;5.624;2023-11-21T08:46:34;101451.41;;;7.10;100.00
59043;BME280;44826;51.596;5.624;2023-11-21T08:49:03;101456.59;;;7.13;100.00
59043;BME280;44826;51.596;5.624;2023-11-21T08:51:28;101458.31;;;7.14;100.00
59043;BME280;44826;51.596;5.624;2023-11-21T08:53:53;101463.47;;;7.18;100.00
59043;BME280;44826;51.596;5.624;2023-11-21T08:56:19;101462.59;;;7.20;100.00
59043;BME280;44826;51.596;5.624;2023-11-21T08:58:45;101463.47;;;7.22;100.00
59043;BME280;44826;51.596;5.624;2023-11-21T09:01:12;101475.53;;;7.25;100.00
59043;BME280;44826;51.596;5.624;2023-11-21T09:03:37;101470.34;;;7.26;100.00
59043;BME280;44826;51.596;5.624;2023-11-21T09:06:03;101473.81;;;7.30;100.00
59043;BME280;44826;51.596;5.624;2023-11-21T09:08:29;101472.06;;;7.34;100.00
59043;BME280;44826;51.596;5.624;2023-11-21T09:10:54;101472.94;;;7.39;100.00
59043;BME280;44826;51.596;5.624;2023-11-21T09:13:20;101472.03;;;7.41;100.00
59043;BME280;44826;51.596;5.624;2023-11-21T09:15:45;101478.06;;;7.48;100.00
59043;BME280;44826;51.596;5.624;2023-11-21T09:18:14;101469.44;;;7.52;100.00
59043;BME280;44826;51.596;5.624;2023-11-21T09:20:40;101475.44;;;7.60;100.00
59043;BME280;44826;51.596;5.624;2023-11-21T09:23:06;101482.34;;;7.66;100.00
59043;BME280;44826;51.596;5.624;2023-11-21T09:25:32;101490.09;;;7.72;100.00
59043;BME280;44826;51.596;5.624;2023-11-21T09:27:57;101501.28;;;7.79;100.00
59043;BME280;44826;51.596;5.624;2023-11-21T09:30:23;101504.75;;;7.83;100.00
59043;BME280;44826;51.596;5.624;2023-11-21T09:32:50;101503.88;;;7.84;100.00
59043;BME280;44826;51.596;5.624;2023-11-21T09:35:15;101504.72;;;7.87;100.00
59043;BME280;44826;51.596;5.624;2023-11-21T09:37:43;101507.28;;;7.89;100.00
59043;BME280;44826;51.596;5.624;2023-11-21T09:40:10;101499.50;;;7.89;100.00
59043;BME280;44826;51.596;5.624;2023-11-21T09:42:40;101510.72;;;7.94;100.00
59043;BME280;44826;51.596;5.624;2023-11-21T09:45:15;101507.28;;;7.98;100.00
59043;BME280;44826;51.596;5.624;2023-11-21T09:47:43;101520.22;;;8.01;100.00
59043;BME280;44826;51.596;5.624;2023-11-21T09:50:09;101524.50;;;8.04;100.00
59043;BME280;44826;51.596;5.624;2023-11-21T09:52:48;101527.09;;;8.05;100.00
59043;BME280;44826;51.596;5.624;2023-11-21T09:55:16;101534.88;;;8.04;100.00
59043;BME280;44826;51.596;5.624;2023-11-21T09:57:44;101540.03;;;8.05;100.00
59043;BME280;44826;51.596;5.624;2023-11-21T10:00:11;101542.69;;;8.02;100.00
59043;BME280;44826;51.596;5.624;2023-11-21T10:02:38;101550.41;;;8.05;100.00
59043;BME280;44826;51.596;5.624;2023-11-21T10:05:06;101553.88;;;8.06;100.00
59043;BME280;44826;51.596;5.624;2023-11-21T10:07:31;101556.44;;;8.08;100.00
59043;BME280;44826;51.596;5.624;2023-11-21T10:10:00;101549.53;;;8.07;100.00
59043;BME280;44826;51.596;5.624;2023-11-21T10:12:28;101554.72;;;8.10;100.00
59043;BME280;44826;51.596;5.624;2023-11-21T10:14:54;101556.44;;;8.11;100.00
59043;BME280;44826;51.596;5.624;2023-11-21T10:17:23;101559.03;;;8.12;100.00
59043;BME280;44826;51.596;5.624;2023-11-21T10:19:52;101558.16;;;8.15;100.00
59043;BME280;44826;51.596;5.624;2023-11-21T10:22:19;101553.84;;;8.17;100.00
59043;BME280;44826;51.596;5.624;2023-11-21T10:24:45;101565.91;;;8.19;100.00
59043;BME280;44826;51.596;5.624;2023-11-21T10:27:11;101561.59;;;8.22;100.00
59043;BME280;44826;51.596;5.624;2023-11-21T10:29:36;101566.75;;;8.23;100.00
59043;BME280;44826;51.596;5.624;2023-11-21T10:32:02;101582.31;;;8.26;100.00
59043;BME280;44826;51.596;5.624;2023-11-21T10:34:28;101584.03;;;8.26;100.00
59043;BME280;44826;51.596;5.624;2023-11-21T10:36:54;101574.53;;;8.25;100.00
59043;BME280;44826;51.596;5.624;2023-11-21T10:39:23;101584.00;;;8.29;100.00
59043;BME280;44826;51.596;5.624;2023-11-21T10:41:49;101590.06;;;8.32;100.00
59043;BME280;44826;51.596;5.624;2023-11-21T10:44:17;101577.94;;;8.36;100.00
59043;BME280;44826;51.596;5.624;2023-11-21T10:46:54;101575.31;;;8.41;100.00
59043;BME280;44826;51.596;5.624;2023-11-21T10:49:25;101575.31;;;8.47;100.00
59043;BME280;44826;51.596;5.624;2023-11-21T10:51:51;101583.09;;;8.50;100.00
59043;BME280;44826;51.596;5.624;2023-11-21T10:54:22;101574.44;;;8.53;100.00
59043;BME280;44826;51.596;5.624;2023-11-21T10:56:56;101582.19;;;8.57;100.00
59043;BME280;44826;51.596;5.624;2023-11-21T10:59:22;101568.31;;;8.68;100.00
59043;BME280;44826;51.596;5.624;2023-11-21T11:01:50;101576.84;;;8.85;100.00
59043;BME280;44826;51.596;5.624;2023-11-21T11:04:18;101571.56;;;8.98;100.00
59043;BME280;44826;51.596;5.624;2023-11-21T11:06:45;101584.44;;;9.07;100.00
59043;BME280;44826;51.596;5.624;2023-11-21T11:09:16;101580.09;;;9.12;100.00
59043;BME280;44826;51.596;5.624;2023-11-21T11:11:42;101584.41;;;9.15;100.00
59043;BME280;44826;51.596;5.624;2023-11-21T11:14:13;101586.16;;;9.11;100.00
59043;BME280;44826;51.596;5.624;2023-11-21T11:16:40;101590.50;;;9.09;100.00
59043;BME280;44826;51.596;5.624;2023-11-21T11:19:11;101593.13;;;9.07;100.00
59043;BME280;44826;51.596;5.624;2023-11-21T11:21:46;101602.63;;;9.08;100.00
59043;BME280;44826;51.596;5.624;2023-11-21T11:27:07;101618.19;;;9.10;100.00
59043;BME280;44826;51.596;5.624;2023-11-21T11:32:24;101614.78;;;9.02;100.00
59043;BME280;44826;51.596;5.624;2023-11-21T11:35:11;101614.78;;;9.02;100.00
59043;BME280;44826;51.596;5.624;2023-11-21T11:37:42;101610.47;;;9.04;100.00
59043;BME280;44826;51.596;5.624;2023-11-21T11:40:07;101602.63;;;9.07;100.00
59043;BME280;44826;51.596;5.624;2023-11-21T11:42:36;101604.34;;;9.11;100.00
59043;BME280;44826;51.596;5.624;2023-11-21T11:45:01;101612.13;;;9.13;100.00
59043;BME280;44826;51.596;5.624;2023-11-21T11:47:31;101621.63;;;9.15;100.00
59043;BME280;44826;51.596;5.624;2023-11-21T11:50:07;101622.47;;;9.16;100.00
59043;BME280;44826;51.596;5.624;2023-11-21T11:52:42;101632.84;;;9.19;100.00
59043;BME280;44826;51.596;5.624;2023-11-21T11:55:10;101640.63;;;9.20;100.00
59043;BME280;44826;51.596;5.624;2023-11-21T11:57:36;101639.75;;;9.21;100.00
59043;BME280;44826;51.596;5.624;2023-11-21T12:00:19;101650.16;;;9.17;100.00
59043;BME280;44826;51.596;5.624;2023-11-21T12:03:01;101658.84;;;9.14;100.00
59043;BME280;44826;51.596;5.624;2023-11-21T12:05:31;101652.81;;;9.09;100.00
59043;BME280;44826;51.596;5.624;2023-11-21T12:08:00;101655.44;;;9.04;100.00
59043;BME280;44826;51.596;5.624;2023-11-21T12:10:31;101667.56;;;9.01;100.00
59043;BME280;44826;51.596;5.624;2023-11-21T12:12:59;101660.66;;;8.98;100.00
59043;BME280;44826;51.596;5.624;2023-11-21T12:15:25;101680.56;;;8.94;100.00
59043;BME280;44826;51.596;5.624;2023-11-21T12:17:51;101672.81;;;8.91;100.00
59043;BME280;44826;51.596;5.624;2023-11-21T12:20:21;101672.84;;;8.87;100.00
59043;BME280;44826;51.596;5.624;2023-11-21T12:22:48;101681.50;;;8.84;100.00
59043;BME280;44826;51.596;5.624;2023-11-21T12:25:21;101682.34;;;8.81;100.00
59043;BME280;44826;51.596;5.624;2023-11-21T12:27:48;101688.44;;;8.79;100.00
59043;BME280;44826;51.596;5.624;2023-11-21T12:30:15;101686.72;;;8.79;100.00
59043;BME280;44826;51.596;5.624;2023-11-21T12:32:48;101689.28;;;8.83;100.00
59043;BME280;44826;51.596;5.624;2023-11-21T12:35:14;101691.88;;;8.84;100.00
59043;BME280;44826;51.596;5.624;2023-11-21T12:37:40;101696.22;;;8.85;100.00
59043;BME280;44826;51.596;5.624;2023-11-21T12:40:08;101701.38;;;8.90;100.00
59043;BME280;44826;51.596;5.624;2023-11-21T12:42:39;101703.94;;;8.93;100.00
59043;BME280;44826;51.596;5.624;2023-11-21T12:45:27;101703.94;;;8.94;100.00
59043;BME280;44826;51.596;5.624;2023-11-21T12:48:05;101704.78;;;8.93;100.00
59043;BME280;44826;51.596;5.624;2023-11-21T12:50:36;101704.81;;;8.90;100.00
59043;BME280;44826;51.596;5.624;2023-11-21T12:53:06;101701.38;;;8.90;100.00